Time;durP1;ratioP1;P1;durP2;ratioP2;P2;SDS_P1;SDS_P2;PMS_P1;PMS_P2;Temp;Humidity;BMP_temperature;BMP_pressure;BME280_temperature;BME280_humidity;BME280_pressure;Samples;Min_cycle;Max_cycle;Signal;HPM_P1;HPM_P2
2020/12/18 00:02:21;;;;;;;12.27;10.10;;;5.20;99.90;;;;;;5036130;28;20463;-64
2020/12/18 00:04:48;;;;;;;12.60;9.83;;;5.20;99.90;;;;;;5036142;28;20481;-64
2020/12/18 00:07:14;;;;;;;23.50;10.80;;;5.20;99.90;;;;;;5036059;28;20434;-64
2020/12/18 00:09:42;;;;;;;17.50;10.77;;;5.20;99.90;;;;;;5036015;28;20864;-64
2020/12/18 00:12:08;;;;;;;12.23;8.83;;;5.10;99.90;;;;;;5035847;28;20473;-64
2020/12/18 00:14:34;;;;;;;15.80;10.20;;;5.10;99.90;;;;;;5035924;28;20446;-64
2020/12/18 00:17:00;;;;;;;14.67;9.93;;;5.10;99.90;;;;;;5036444;28;20457;-64
2020/12/18 00:19:26;;;;;;;17.27;10.40;;;5.00;99.90;;;;;;5035827;28;20449;-64
2020/12/18 00:21:55;;;;;;;16.23;9.10;;;5.00;99.90;;;;;;5035740;28;20538;-64
2020/12/18 00:24:22;;;;;;;14.43;10.20;;;4.90;99.90;;;;;;5035451;28;21069;-64
2020/12/18 00:26:49;;;;;;;13.30;9.40;;;4.90;99.90;;;;;;5035508;28;20475;-64
2020/12/18 00:29:15;;;;;;;12.57;8.53;;;4.90;99.90;;;;;;5035274;28;20482;-64
2020/12/18 00:31:41;;;;;;;15.00;9.30;;;4.90;99.90;;;;;;5035517;28;20462;-64
2020/12/18 00:34:07;;;;;;;14.33;9.30;;;4.90;99.90;;;;;;5035237;28;20947;-64
2020/12/18 00:36:34;;;;;;;14.97;10.50;;;4.90;99.90;;;;;;5035215;28;20981;-64
2020/12/18 00:39:00;;;;;;;15.93;10.23;;;4.90;99.90;;;;;;5035118;28;20476;-64
2020/12/18 00:41:27;;;;;;;15.13;9.97;;;4.90;99.90;;;;;;5035341;28;20536;-64
2020/12/18 00:43:54;;;;;;;14.00;9.60;;;4.80;99.90;;;;;;5035383;28;20447;-64
2020/12/18 00:46:20;;;;;;;18.37;10.30;;;4.80;99.90;;;;;;5035002;28;20455;-64
2020/12/18 00:48:47;;;;;;;13.60;8.90;;;4.80;99.90;;;;;;5035213;28;20485;-64
2020/12/18 00:51:15;;;;;;;14.80;11.40;;;4.70;99.90;;;;;;5035175;28;20478;-64
2020/12/18 00:53:41;;;;;;;14.30;9.80;;;4.70;99.90;;;;;;5035167;28;20501;-64
2020/12/18 00:56:08;;;;;;;17.63;10.60;;;4.60;99.90;;;;;;5035105;28;20926;-64
2020/12/18 00:58:34;;;;;;;18.33;10.97;;;4.60;99.90;;;;;;5034771;28;20926;-64
2020/12/18 01:01:02;;;;;;;15.90;10.43;;;4.50;99.90;;;;;;5034688;28;21005;-64
2020/12/18 01:03:29;;;;;;;15.17;9.87;;;4.40;99.90;;;;;;5034545;28;20454;-64
2020/12/18 01:05:55;;;;;;;16.13;10.33;;;4.40;99.90;;;;;;5034979;28;20470;-64
2020/12/18 01:08:22;;;;;;;15.60;9.00;;;4.50;99.90;;;;;;5034840;28;20487;-64
2020/12/18 01:10:48;;;;;;;14.57;9.97;;;4.50;99.90;;;;;;5034813;28;20477;-64
2020/12/18 01:13:15;;;;;;;19.40;10.17;;;4.40;99.90;;;;;;5035070;28;20442;-64
2020/12/18 01:15:41;;;;;;;15.60;10.00;;;4.40;99.90;;;;;;5034784;28;20443;-64
2020/12/18 01:18:08;;;;;;;20.20;10.40;;;4.50;99.90;;;;;;5034710;28;20447;-64
2020/12/18 01:20:34;;;;;;;104.77;15.47;;;4.50;99.90;;;;;;5034357;28;20435;-64
2020/12/18 01:23:00;;;;;;;104.03;14.20;;;4.40;99.90;;;;;;5034619;28;20450;-64
2020/12/18 01:25:27;;;;;;;112.17;13.57;;;4.40;99.90;;;;;;5034547;28;20537;-64
2020/12/18 01:27:53;;;;;;;48.00;11.30;;;4.30;99.90;;;;;;5034515;28;20536;-64
2020/12/18 01:30:19;;;;;;;23.60;9.30;;;4.30;99.90;;;;;;5034426;28;20446;-64
2020/12/18 01:32:45;;;;;;;12.33;9.43;;;4.30;99.90;;;;;;5034435;28;20476;-64
2020/12/18 01:35:12;;;;;;;11.60;9.27;;;4.40;99.90;;;;;;5034422;28;20821;-64
2020/12/18 01:37:39;;;;;;;12.43;9.70;;;4.40;99.90;;;;;;5034358;28;20438;-64
2020/12/18 01:40:05;;;;;;;11.70;8.40;;;4.50;99.90;;;;;;5034262;28;20856;-64
2020/12/18 01:42:31;;;;;;;13.70;9.03;;;4.60;99.90;;;;;;5033885;28;21048;-64
2020/12/18 01:44:57;;;;;;;12.33;8.30;;;4.60;99.90;;;;;;5034199;28;20492;-64
2020/12/18 01:47:31;;;;;;;12.67;8.87;;;4.60;99.90;;;;;;5034082;28;20447;-64
2020/12/18 01:49:57;;;;;;;14.00;9.50;;;4.60;99.90;;;;;;5034182;28;20431;-64
2020/12/18 01:52:25;;;;;;;11.93;9.03;;;4.60;99.90;;;;;;5033718;28;20888;-64
2020/12/18 01:54:53;;;;;;;12.10;8.70;;;4.70;99.90;;;;;;5033753;28;20453;-64
2020/12/18 01:57:20;;;;;;;12.97;8.60;;;4.50;99.90;;;;;;5034030;28;20560;-64
2020/12/18 01:59:47;;;;;;;8.17;7.37;;;4.50;99.90;;;;;;5033795;28;20938;-64
2020/12/18 02:02:16;;;;;;;9.77;7.30;;;4.50;99.90;;;;;;5033843;28;20463;-64
2020/12/18 02:04:43;;;;;;;9.97;8.00;;;4.50;99.90;;;;;;5033891;28;20447;-64
2020/12/18 02:07:11;;;;;;;7.70;6.90;;;4.50;99.90;;;;;;5033773;28;20820;-64
2020/12/18 02:09:38;;;;;;;8.77;7.13;;;4.40;99.90;;;;;;5033801;28;20447;-64
2020/12/18 02:12:05;;;;;;;9.80;8.13;;;4.40;99.90;;;;;;5033385;28;21010;-64
2020/12/18 02:14:31;;;;;;;7.77;6.90;;;4.30;99.90;;;;;;5033297;28;20447;-64
2020/12/18 02:16:58;;;;;;;10.43;7.27;;;4.30;99.90;;;;;;5033365;28;20443;-64
2020/12/18 02:19:26;;;;;;;10.60;7.60;;;4.30;99.90;;;;;;5033925;28;20439;-64
2020/12/18 02:21:52;;;;;;;8.10;6.90;;;4.40;99.90;;;;;;5033530;28;20466;-64
2020/12/18 02:24:25;;;;;;;13.50;7.07;;;4.50;99.90;;;;;;5033554;28;20447;-64
2020/12/18 02:26:53;;;;;;;9.43;6.80;;;4.50;99.90;;;;;;5033251;28;20482;-64
2020/12/18 02:29:19;;;;;;;13.00;8.87;;;4.60;99.90;;;;;;5033445;28;20483;-64
2020/12/18 02:31:48;;;;;;;8.10;7.30;;;4.60;99.90;;;;;;5033106;28;20462;-64
2020/12/18 02:34:22;;;;;;;9.70;7.83;;;4.70;99.90;;;;;;5033490;28;20454;-64
2020/12/18 02:36:48;;;;;;;11.57;7.47;;;4.90;99.90;;;;;;5033483;28;20431;-64
2020/12/18 02:39:14;;;;;;;11.60;7.90;;;4.90;99.90;;;;;;5033345;28;20453;-64
2020/12/18 02:41:40;;;;;;;9.50;7.00;;;4.90;99.90;;;;;;5032994;28;20477;-64
2020/12/18 02:44:08;;;;;;;7.93;6.93;;;5.00;99.90;;;;;;5033337;28;20450;-64
2020/12/18 02:46:34;;;;;;;7.13;5.97;;;5.00;99.90;;;;;;5033325;28;20451;-64
2020/12/18 02:49:00;;;;;;;7.23;6.53;;;5.00;99.90;;;;;;5033554;28;20989;-64
2020/12/18 02:51:27;;;;;;;9.40;6.83;;;5.00;99.90;;;;;;5033211;28;20470;-64
2020/12/18 02:53:53;;;;;;;8.23;6.67;;;5.20;99.90;;;;;;5033247;28;20453;-64
2020/12/18 02:56:24;;;;;;;10.67;7.47;;;5.30;99.90;;;;;;5033245;28;20458;-63
2020/12/18 02:58:50;;;;;;;9.27;7.33;;;5.40;99.90;;;;;;5033236;28;20458;-64
2020/12/18 03:01:17;;;;;;;10.80;7.00;;;5.30;99.90;;;;;;5032805;28;20986;-64
2020/12/18 03:03:43;;;;;;;9.23;6.27;;;5.30;99.90;;;;;;5033206;28;20457;-64
2020/12/18 03:06:10;;;;;;;9.33;7.13;;;5.30;99.90;;;;;;5033105;28;20450;-64
2020/12/18 03:08:36;;;;;;;11.70;7.67;;;5.20;99.90;;;;;;5033043;28;20478;-64
2020/12/18 03:11:03;;;;;;;8.37;6.73;;;5.20;99.90;;;;;;5033033;28;20540;-64
2020/12/18 03:13:29;;;;;;;7.80;6.50;;;5.20;99.90;;;;;;5033090;28;20451;-64
2020/12/18 03:15:55;;;;;;;7.40;6.27;;;5.20;99.90;;;;;;5033045;28;20454;-64
2020/12/18 03:18:23;;;;;;;7.53;6.63;;;5.20;99.90;;;;;;5032917;28;20931;-64
2020/12/18 03:20:49;;;;;;;8.10;6.20;;;5.30;99.90;;;;;;5033509;28;20463;-64
2020/12/18 03:23:15;;;;;;;7.20;6.47;;;5.10;99.90;;;;;;5032849;28;20470;-64
2020/12/18 03:25:42;;;;;;;7.67;6.27;;;5.10;99.90;;;;;;5032492;28;21013;-64
2020/12/18 03:28:09;;;;;;;10.00;7.60;;;5.10;99.90;;;;;;5036507;28;20485;-64
2020/12/18 03:30:35;;;;;;;8.90;7.07;;;5.10;99.90;;;;;;5036702;28;20862;-64
2020/12/18 03:33:01;;;;;;;8.67;6.97;;;5.10;99.90;;;;;;5036621;28;20934;-64
2020/12/18 03:35:29;;;;;;;7.97;6.40;;;5.20;99.90;;;;;;5037382;28;20455;-64
2020/12/18 03:37:55;;;;;;;11.53;7.40;;;5.30;99.90;;;;;;5036625;28;20438;-64
2020/12/18 03:40:23;;;;;;;8.53;6.70;;;5.40;99.90;;;;;;5036331;28;20442;-64
2020/12/18 03:42:49;;;;;;;8.90;6.70;;;5.50;99.90;;;;;;5036772;28;20453;-64
2020/12/18 03:45:15;;;;;;;7.00;5.83;;;5.40;99.90;;;;;;5036567;28;20450;-64
2020/12/18 03:47:41;;;;;;;8.20;7.00;;;5.40;99.90;;;;;;5036638;28;20478;-64
2020/12/18 03:50:08;;;;;;;8.90;6.37;;;5.30;99.90;;;;;;5036643;28;20521;-64
2020/12/18 03:52:35;;;;;;;9.87;6.60;;;5.30;99.90;;;;;;5036309;28;20493;-64
2020/12/18 03:55:01;;;;;;;6.80;6.00;;;5.30;99.90;;;;;;5036304;28;20442;-64
2020/12/18 03:57:27;;;;;;;9.27;7.27;;;5.30;99.90;;;;;;5036261;28;20446;-64
2020/12/18 03:59:53;;;;;;;7.90;6.70;;;5.20;99.90;;;;;;5036227;28;20443;-64
2020/12/18 04:02:19;;;;;;;9.13;7.03;;;5.20;99.90;;;;;;5036094;28;20466;-64
2020/12/18 04:04:45;;;;;;;11.10;7.43;;;5.10;99.90;;;;;;5036145;28;20446;-64
2020/12/18 04:07:13;;;;;;;9.43;7.50;;;5.10;99.90;;;;;;5036101;28;20573;-64
2020/12/18 04:09:40;;;;;;;8.87;7.90;;;5.00;99.90;;;;;;5035967;28;20489;-64
2020/12/18 04:12:06;;;;;;;10.43;7.47;;;5.10;99.90;;;;;;5035980;28;20478;-64
2020/12/18 04:14:33;;;;;;;8.77;6.83;;;5.10;99.90;;;;;;5035960;28;20450;-64
2020/12/18 04:17:00;;;;;;;9.20;6.97;;;5.00;99.90;;;;;;5036174;28;20453;-64
2020/12/18 04:19:27;;;;;;;8.17;6.97;;;5.00;99.90;;;;;;5035559;28;20938;-64
2020/12/18 04:21:53;;;;;;;8.30;7.40;;;5.10;99.90;;;;;;5035783;28;20462;-64
2020/12/18 04:24:19;;;;;;;8.37;7.03;;;5.20;99.90;;;;;;5035770;28;20461;-64
2020/12/18 04:26:46;;;;;;;10.17;7.13;;;5.20;99.90;;;;;;5035253;28;21017;-64
2020/12/18 04:29:12;;;;;;;7.27;6.40;;;5.10;99.90;;;;;;5035585;28;20497;-64
2020/12/18 04:31:39;;;;;;;8.67;7.00;;;5.20;99.90;;;;;;5035551;28;20466;-64
2020/12/18 04:34:05;;;;;;;8.70;6.57;;;5.20;99.90;;;;;;5035589;28;20469;-64
2020/12/18 04:36:31;;;;;;;10.70;7.67;;;5.20;99.90;;;;;;5035543;28;20446;-64
2020/12/18 04:38:57;;;;;;;8.60;6.90;;;5.30;99.90;;;;;;5034680;28;20804;-64
2020/12/18 04:41:24;;;;;;;9.07;7.33;;;5.20;99.90;;;;;;5035115;28;20462;-64
2020/12/18 04:43:52;;;;;;;10.47;7.70;;;5.20;99.90;;;;;;5035408;28;20446;-64
2020/12/18 04:46:21;;;;;;;10.97;7.80;;;5.30;99.90;;;;;;5035052;28;20950;-64
2020/12/18 04:48:47;;;;;;;8.53;7.20;;;5.30;99.90;;;;;;5035270;28;20501;-64
2020/12/18 04:51:19;;;;;;;13.33;7.60;;;5.20;99.90;;;;;;5034895;28;20473;-64
2020/12/18 04:53:48;;;;;;;7.90;7.10;;;5.20;99.90;;;;;;5035265;28;20427;-64
2020/12/18 04:56:20;;;;;;;10.27;7.30;;;5.50;99.90;;;;;;5035197;28;20478;-63
2020/12/18 04:58:49;;;;;;;8.27;6.90;;;5.50;99.90;;;;;;5035972;28;20423;-64
2020/12/18 05:01:18;;;;;;;9.50;7.00;;;5.60;99.90;;;;;;5035026;28;20463;-64
2020/12/18 05:03:45;;;;;;;7.53;6.33;;;5.70;99.90;;;;;;5034995;28;20438;-64
2020/12/18 05:06:11;;;;;;;12.73;7.53;;;5.60;99.90;;;;;;5034969;28;20482;-64
2020/12/18 05:08:37;;;;;;;10.87;7.40;;;5.60;99.90;;;;;;5034854;28;20478;-64
2020/12/18 05:11:16;;;;;;;9.43;7.07;;;5.70;99.90;;;;;;5035094;28;20467;-64
2020/12/18 05:13:43;;;;;;;10.57;7.80;;;5.80;99.90;;;;;;5034870;28;20794;-64
2020/12/18 05:16:09;;;;;;;12.47;7.30;;;6.00;99.90;;;;;;5034798;28;20454;-64
2020/12/18 05:18:36;;;;;;;9.90;7.70;;;6.10;99.90;;;;;;5034448;28;20457;-64
2020/12/18 05:21:02;;;;;;;10.77;7.47;;;6.00;99.90;;;;;;5034628;28;20466;-64
2020/12/18 05:23:29;;;;;;;7.17;6.43;;;5.90;99.90;;;;;;5034660;28;20449;-64
2020/12/18 05:25:55;;;;;;;8.07;6.80;;;5.70;99.90;;;;;;5034412;28;20474;-64
2020/12/18 05:28:22;;;;;;;10.80;7.07;;;5.60;99.90;;;;;;5034465;28;20489;-64
2020/12/18 05:30:54;;;;;;;10.50;6.90;;;5.50;99.90;;;;;;5034441;28;20458;-64
2020/12/18 05:33:25;;;;;;;9.50;7.00;;;5.50;99.90;;;;;;5034428;28;20434;-64
2020/12/18 05:35:54;;;;;;;8.50;7.23;;;5.40;99.90;;;;;;5034969;28;20496;-64
2020/12/18 05:38:22;;;;;;;9.73;7.23;;;5.40;99.90;;;;;;5034333;28;20443;-64
2020/12/18 05:40:48;;;;;;;10.20;6.97;;;5.40;99.90;;;;;;5034254;28;20985;-64
2020/12/18 05:43:16;;;;;;;9.77;7.83;;;5.40;99.90;;;;;;5035006;28;20926;-64
2020/12/18 05:45:42;;;;;;;11.47;7.93;;;5.40;99.90;;;;;;5033894;28;20827;-64
2020/12/18 05:48:08;;;;;;;8.53;7.37;;;5.50;99.90;;;;;;5034075;28;20490;-64
2020/12/18 05:50:37;;;;;;;9.40;7.20;;;5.60;99.90;;;;;;5033996;28;20455;-64
2020/12/18 05:53:05;;;;;;;8.17;7.10;;;5.80;99.90;;;;;;5034107;28;20517;-64
2020/12/18 05:55:35;;;;;;;8.70;7.33;;;5.70;99.90;;;;;;5034354;28;20787;-64
2020/12/18 05:58:01;;;;;;;9.00;7.03;;;5.60;99.90;;;;;;5033649;28;20438;-64
2020/12/18 06:00:27;;;;;;;8.50;7.20;;;5.60;99.90;;;;;;5033873;28;20507;-64
2020/12/18 06:03:00;;;;;;;7.97;7.10;;;5.60;99.90;;;;;;5033860;28;20505;-64
2020/12/18 06:05:26;;;;;;;12.57;8.17;;;5.50;99.90;;;;;;5033836;28;20450;-64
2020/12/18 06:07:53;;;;;;;9.23;7.30;;;5.50;99.90;;;;;;5033424;28;20478;-64
2020/12/18 06:10:23;;;;;;;8.50;6.90;;;5.50;99.90;;;;;;5033380;28;21012;-64
2020/12/18 06:12:50;;;;;;;9.67;7.37;;;5.50;99.90;;;;;;5033418;28;20454;-64
2020/12/18 06:15:18;;;;;;;10.10;7.73;;;5.50;99.90;;;;;;5033698;28;20454;-64
2020/12/18 06:17:45;;;;;;;8.50;7.70;;;5.50;99.90;;;;;;5033358;28;20996;-64
2020/12/18 06:20:15;;;;;;;10.37;8.30;;;5.50;99.90;;;;;;5033578;28;20443;-64
2020/12/18 06:22:59;;;;;;;9.20;7.10;;;5.50;99.90;;;;;;5033537;28;20524;-64
2020/12/18 06:25:26;;;;;;;9.77;7.67;;;5.50;99.90;;;;;;5033625;28;20479;-64
2020/12/18 06:27:57;;;;;;;10.60;7.50;;;5.50;99.90;;;;;;5033188;28;20934;-64
2020/12/18 06:30:24;;;;;;;11.53;7.23;;;5.50;99.90;;;;;;5033435;28;20427;-64
2020/12/18 06:32:50;;;;;;;12.87;7.73;;;5.50;99.90;;;;;;5033402;28;20446;-64
2020/12/18 06:35:30;;;;;;;9.20;7.27;;;5.50;99.90;;;;;;5033406;28;20442;-65
2020/12/18 06:37:57;;;;;;;10.57;7.10;;;5.50;99.90;;;;;;5033372;28;20422;-64
2020/12/18 06:40:29;;;;;;;9.03;7.40;;;5.50;99.90;;;;;;5033260;28;20443;-64
2020/12/18 06:42:56;;;;;;;8.93;7.30;;;5.60;99.90;;;;;;5033290;28;20497;-64
2020/12/18 06:45:23;;;;;;;9.20;6.83;;;5.60;99.90;;;;;;5033261;28;20450;-64
2020/12/18 06:47:49;;;;;;;8.07;7.00;;;5.60;99.90;;;;;;5033144;28;20473;-64
2020/12/18 06:50:16;;;;;;;9.80;7.97;;;5.50;99.90;;;;;;5033229;28;20446;-64
2020/12/18 06:52:48;;;;;;;10.53;7.90;;;5.50;99.90;;;;;;5032862;28;20477;-64
2020/12/18 06:55:33;;;;;;;9.80;7.20;;;5.50;99.90;;;;;;5032892;28;20442;-64
2020/12/18 06:58:12;;;;;;;10.60;7.87;;;5.40;99.90;;;;;;5032893;28;20430;-64
2020/12/18 07:00:42;;;;;;;11.83;8.50;;;5.50;99.90;;;;;;5032753;28;20812;-64
2020/12/18 07:03:09;;;;;;;11.50;8.90;;;5.70;99.90;;;;;;5036753;28;20895;-64
2020/12/18 07:05:37;;;;;;;12.60;8.57;;;5.60;99.90;;;;;;5036902;28;20965;-64
2020/12/18 07:08:06;;;;;;;10.20;8.20;;;5.70;99.90;;;;;;5037135;28;20473;-64
2020/12/18 07:10:36;;;;;;;12.73;8.40;;;5.60;99.90;;;;;;5037002;28;20455;-64
2020/12/18 07:13:02;;;;;;;9.63;7.87;;;5.60;99.90;;;;;;5037049;28;20430;-64
2020/12/18 07:15:48;;;;;;;9.17;7.00;;;5.60;99.90;;;;;;5036930;28;20938;-64
2020/12/18 07:18:15;;;;;;;9.60;7.27;;;5.50;99.90;;;;;;5037001;28;20437;-64
2020/12/18 07:20:48;;;;;;;12.03;8.03;;;5.50;99.90;;;;;;5036606;28;20978;-64
2020/12/18 07:23:15;;;;;;;13.00;9.00;;;5.40;99.90;;;;;;5036909;28;20434;-64
2020/12/18 07:25:41;;;;;;;8.97;7.27;;;5.40;99.90;;;;;;5036835;28;20470;-64
2020/12/18 07:28:07;;;;;;;14.53;7.80;;;5.40;99.90;;;;;;5036694;28;21012;-64
2020/12/18 07:30:39;;;;;;;10.80;7.70;;;5.40;99.90;;;;;;5036449;28;20435;-64
2020/12/18 07:33:05;;;;;;;8.60;7.30;;;5.40;99.90;;;;;;5036469;28;20967;-64
2020/12/18 07:35:36;;;;;;;9.90;8.30;;;5.30;99.90;;;;;;5036768;28;20470;-64
2020/12/18 07:38:02;;;;;;;9.33;7.30;;;5.40;99.90;;;;;;5036388;28;20853;-64
2020/12/18 07:40:29;;;;;;;11.00;8.40;;;5.40;99.90;;;;;;5036544;28;20427;-64
2020/12/18 07:42:55;;;;;;;10.10;7.53;;;5.50;99.90;;;;;;5036650;28;20427;-64
2020/12/18 07:45:21;;;;;;;11.20;7.80;;;5.50;99.90;;;;;;5036500;28;20426;-64
2020/12/18 07:47:49;;;;;;;11.33;7.87;;;5.50;99.90;;;;;;5036045;28;20918;-64
2020/12/18 07:50:15;;;;;;;9.90;7.70;;;5.40;99.90;;;;;;5036451;28;20813;-64
2020/12/18 07:52:41;;;;;;;12.07;7.60;;;5.50;99.90;;;;;;5036248;28;20470;-64
2020/12/18 07:55:08;;;;;;;9.87;7.20;;;5.50;99.90;;;;;;5036024;28;20447;-64
2020/12/18 07:57:34;;;;;;;13.27;8.03;;;5.50;99.90;;;;;;5036231;28;20511;-64
2020/12/18 08:00:08;;;;;;;9.37;7.73;;;5.50;99.90;;;;;;5036171;28;20846;-64
2020/12/18 08:02:35;;;;;;;11.67;7.63;;;5.60;99.90;;;;;;5036065;28;20492;-64
2020/12/18 08:05:02;;;;;;;10.40;7.90;;;5.80;99.90;;;;;;5036170;28;20438;-64
2020/12/18 08:07:30;;;;;;;9.43;7.33;;;5.90;99.90;;;;;;5036079;28;20443;-64
2020/12/18 08:09:59;;;;;;;11.27;8.20;;;6.10;99.90;;;;;;5035997;28;20977;-64
2020/12/18 08:12:26;;;;;;;7.80;6.73;;;6.00;99.90;;;;;;5035265;28;20477;-64
2020/12/18 08:15:07;;;;;;;10.07;7.33;;;6.00;99.90;;;;;;5035352;28;20446;-64
2020/12/18 08:17:34;;;;;;;10.73;7.60;;;6.00;99.90;;;;;;5035888;28;20466;-64
2020/12/18 08:20:02;;;;;;;10.67;8.07;;;6.10;99.90;;;;;;5035855;28;20861;-64
2020/12/18 08:22:33;;;;;;;11.13;7.90;;;6.20;99.90;;;;;;5035765;28;20462;-65
2020/12/18 08:25:02;;;;;;;9.63;7.77;;;6.40;99.90;;;;;;5035457;28;20434;-64
2020/12/18 08:27:33;;;;;;;9.13;6.83;;;6.60;99.90;;;;;;5035182;28;21021;-64
2020/12/18 08:30:01;;;;;;;7.50;6.50;;;6.70;99.90;;;;;;5035621;28;20493;-64
2020/12/18 08:32:28;;;;;;;9.10;7.13;;;6.70;99.90;;;;;;5035230;28;20470;-64
2020/12/18 08:34:59;;;;;;;9.13;7.20;;;6.70;99.90;;;;;;5035590;28;20493;-63
2020/12/18 08:37:27;;;;;;;10.00;7.20;;;6.70;99.90;;;;;;5035611;28;20435;-64
2020/12/18 08:39:53;;;;;;;11.90;10.10;;;6.60;99.90;;;;;;5035495;28;20443;-63
2020/12/18 08:42:20;;;;;;;16.10;9.10;;;6.40;99.90;;;;;;5035308;28;20462;-63
2020/12/18 08:44:46;;;;;;;13.10;8.43;;;6.40;99.90;;;;;;5035043;28;21084;-64
2020/12/18 08:47:20;;;;;;;12.97;9.47;;;6.30;99.90;;;;;;5034994;28;20981;-63
2020/12/18 08:49:47;;;;;;;14.10;8.77;;;6.30;99.90;;;;;;5035234;28;20478;-63
2020/12/18 08:52:13;;;;;;;12.67;8.70;;;6.30;99.90;;;;;;5035091;28;20466;-63
2020/12/18 08:54:41;;;;;;;11.63;7.97;;;6.40;99.90;;;;;;5035048;28;20455;-63
2020/12/18 08:57:12;;;;;;;18.63;8.10;;;6.40;99.90;;;;;;5035145;28;20447;-63
2020/12/18 08:59:38;;;;;;;11.00;8.40;;;6.50;99.90;;;;;;5035042;28;20454;-63
2020/12/18 09:02:13;;;;;;;11.13;8.30;;;6.60;99.90;;;;;;5034941;28;20467;-63
2020/12/18 09:04:40;;;;;;;11.37;8.50;;;6.70;99.90;;;;;;5035041;28;20431;-63
2020/12/18 09:07:06;;;;;;;14.40;9.30;;;6.70;99.90;;;;;;5034969;28;20450;-63
2020/12/18 09:09:32;;;;;;;10.93;8.63;;;6.80;99.90;;;;;;5035051;28;20479;-63
2020/12/18 09:12:15;;;;;;;10.90;8.10;;;6.90;99.90;;;;;;5034436;28;20467;-62
2020/12/18 09:14:41;;;;;;;11.03;7.50;;;7.10;99.90;;;;;;5034867;28;20481;-63
2020/12/18 09:17:07;;;;;;;9.07;6.90;;;7.30;99.90;;;;;;5034706;28;20438;-63
2020/12/18 09:19:34;;;;;;;9.20;7.57;;;7.50;99.90;;;;;;5034712;28;20842;-63
2020/12/18 09:22:02;;;;;;;9.43;7.10;;;7.80;99.90;;;;;;5034606;28;20501;-63
2020/12/18 09:24:29;;;;;;;8.93;7.10;;;8.50;99.90;;;;;;5034301;28;20442;-63
2020/12/18 09:27:08;;;;;;;7.97;5.93;;;9.90;99.90;;;;;;5034424;28;20851;-63
2020/12/18 09:29:35;;;;;;;8.17;5.80;;;12.00;99.90;;;;;;5034187;28;20498;-63
2020/12/18 09:32:01;;;;;;;8.03;5.60;;;14.00;99.90;;;;;;5034408;28;20522;-63
2020/12/18 09:34:28;;;;;;;6.47;5.87;;;15.80;99.90;;;;;;5034563;28;20459;-63
2020/12/18 09:36:54;;;;;;;6.83;5.20;;;17.40;97.00;;;;;;5034402;28;20820;-63
2020/12/18 09:39:21;;;;;;;5.77;5.17;;;18.90;90.30;;;;;;5034233;28;20446;-63
2020/12/18 09:41:47;;;;;;;5.83;5.30;;;20.10;78.40;;;;;;5034199;28;20463;-63
2020/12/18 09:44:13;;;;;;;5.80;4.97;;;21.00;71.20;;;;;;5034253;28;20810;-63
2020/12/18 09:46:40;;;;;;;5.87;5.27;;;21.10;67.10;;;;;;5034159;28;20453;-63
2020/12/18 09:49:06;;;;;;;5.40;5.00;;;21.90;63.70;;;;;;5033795;28;20482;-63
2020/12/18 09:51:34;;;;;;;5.50;4.88;;;22.80;58.90;;;;;;5034055;28;20477;-64
2020/12/18 09:54:00;;;;;;;5.70;4.88;;;23.20;57.90;;;;;;5033822;28;20242;-64
2020/12/18 09:56:26;;;;;;;5.88;5.38;;;23.60;55.50;;;;;;5033751;28;20207;-64
2020/12/18 09:58:52;;;;;;;5.82;5.22;;;23.70;54.80;;;;;;5034006;28;20254;-64
2020/12/18 10:01:23;;;;;;;5.95;5.38;;;23.50;53.70;;;;;;5033926;28;20227;-64
2020/12/18 10:03:50;;;;;;;5.38;4.97;;;23.50;53.70;;;;;;5033967;28;20191;-64
2020/12/18 10:06:24;;;;;;;7.53;5.47;;;23.00;54.50;;;;;;5033896;28;20214;-64
2020/12/18 10:08:50;;;;;;;10.27;5.07;;;22.60;55.10;;;;;;5033790;28;20208;-64
2020/12/18 10:11:17;;;;;;;5.43;5.03;;;22.60;55.60;;;;;;5033732;28;20227;-64
2020/12/18 10:13:43;;;;;;;6.32;5.53;;;22.60;55.90;;;;;;5033425;28;20203;-64
2020/12/18 10:16:10;;;;;;;6.38;5.78;;;23.10;54.90;;;;;;5033692;28;20214;-64
2020/12/18 10:18:36;;;;;;;4.22;3.92;;;23.50;53.60;;;;;;5033622;28;20199;-64
2020/12/18 10:21:03;;;;;;;4.93;4.47;;;24.40;52.20;;;;;;5033583;28;20224;-64
2020/12/18 10:23:30;;;;;;;4.15;3.95;;;25.30;50.30;;;;;;5033592;28;20226;-64
2020/12/18 10:25:56;;;;;;;4.60;4.30;;;25.90;49.30;;;;;;5033372;28;20229;-64
2020/12/18 10:28:24;;;;;;;4.50;4.20;;;26.30;47.90;;;;;;5033449;28;20335;-64
2020/12/18 10:30:51;;;;;;;4.00;3.75;;;26.20;47.60;;;;;;5033384;28;20219;-64
2020/12/18 10:33:17;;;;;;;4.10;3.90;;;27.00;46.30;;;;;;5033437;28;20210;-64
2020/12/18 10:35:43;;;;;;;4.10;3.78;;;26.90;46.00;;;;;;5032915;28;20204;-64
2020/12/18 10:38:10;;;;;;;4.40;4.10;;;27.30;45.90;;;;;;5033460;28;20207;-64
2020/12/18 10:40:36;;;;;;;4.45;4.05;;;27.40;44.40;;;;;;5033220;28;20620;-64
2020/12/18 10:43:02;;;;;;;4.20;3.83;;;26.80;45.40;;;;;;5033342;28;20199;-64
2020/12/18 10:45:29;;;;;;;3.60;3.40;;;26.80;45.20;;;;;;5033004;28;20700;-64
2020/12/18 10:47:55;;;;;;;4.07;3.78;;;27.30;43.90;;;;;;5033258;28;20204;-64
2020/12/18 10:50:21;;;;;;;4.07;3.78;;;27.20;43.30;;;;;;5032788;28;20249;-63
2020/12/18 10:52:47;;;;;;;4.78;4.47;;;26.90;44.00;;;;;;5032960;28;20233;-63
2020/12/18 10:55:14;;;;;;;3.97;3.70;;;26.30;45.40;;;;;;5033233;28;20210;-63
2020/12/18 10:57:40;;;;;;;3.72;3.45;;;26.20;45.50;;;;;;5033171;28;20214;-64
2020/12/18 11:00:07;;;;;;;4.38;3.67;;;26.50;44.20;;;;;;5033173;28;20204;-64
2020/12/18 11:02:35;;;;;;;3.50;3.30;;;26.30;44.40;;;;;;5033062;28;20227;-63
2020/12/18 11:05:01;;;;;;;3.70;3.50;;;25.80;44.80;;;;;;5033139;28;20306;-64
2020/12/18 11:07:28;;;;;;;4.40;4.10;;;25.20;47.00;;;;;;5033642;28;20207;-63
2020/12/18 11:09:54;;;;;;;3.50;3.30;;;24.90;48.30;;;;;;5033007;28;20228;-63
2020/12/18 11:12:21;;;;;;;3.00;2.90;;;24.70;47.40;;;;;;5033058;28;20230;-63
2020/12/18 11:14:47;;;;;;;4.07;3.78;;;24.40;47.50;;;;;;5033028;28;20286;-63
2020/12/18 11:17:14;;;;;;;3.53;3.30;;;23.60;49.10;;;;;;5033094;28;20214;-63
2020/12/18 11:19:40;;;;;;;3.35;3.13;;;22.60;50.10;;;;;;5032729;28;20601;-64
2020/12/18 11:22:06;;;;;;;3.10;2.90;;;21.40;52.70;;;;;;5033025;28;20279;-63
2020/12/18 11:24:32;;;;;;;3.55;3.35;;;20.30;54.60;;;;;;5032998;28;20203;-64
2020/12/18 11:26:58;;;;;;;3.90;3.60;;;19.50;56.60;;;;;;5032805;28;20231;-64
2020/12/18 11:29:25;;;;;;;2.85;2.65;;;19.40;57.40;;;;;;5032871;28;20230;-64
2020/12/18 11:31:51;;;;;;;3.25;3.03;;;19.70;57.60;;;;;;5032843;28;20228;-63
2020/12/18 11:34:18;;;;;;;2.83;2.63;;;21.00;54.50;;;;;;5032917;28;20571;-64
2020/12/18 11:36:44;;;;;;;2.90;2.72;;;22.30;52.00;;;;;;5032827;28;20207;-64
2020/12/18 11:39:10;;;;;;;2.05;1.95;;;23.90;49.50;;;;;;5032829;28;20253;-64
2020/12/18 11:41:37;;;;;;;2.83;2.72;;;24.70;48.30;;;;;;5032735;28;20223;-64
2020/12/18 11:44:03;;;;;;;2.25;2.15;;;25.40;46.80;;;;;;5032755;28;20203;-64
2020/12/18 11:46:30;;;;;;;2.53;2.33;;;26.00;45.80;;;;;;5032383;28;20749;-64
2020/12/18 11:48:56;;;;;;;2.58;2.47;;;26.20;43.80;;;;;;5036115;28;20224;-64
2020/12/18 11:51:27;;;;;;;2.55;2.40;;;25.40;44.80;;;;;;5036348;28;20246;-64
2020/12/18 11:53:54;;;;;;;2.00;1.90;;;25.40;45.20;;;;;;5036368;28;20194;-64
2020/12/18 11:56:20;;;;;;;2.33;2.22;;;25.10;44.60;;;;;;5036309;28;20204;-64
2020/12/18 11:58:46;;;;;;;1.85;1.75;;;23.80;46.00;;;;;;5036249;28;20206;-64
2020/12/18 12:01:19;;;;;;;2.35;2.20;;;22.00;48.60;;;;;;5035820;28;20579;-64
2020/12/18 12:03:46;;;;;;;3.47;2.97;;;20.10;52.00;;;;;;5035948;28;20631;-64
2020/12/18 12:06:14;;;;;;;2.37;2.27;;;18.40;55.70;;;;;;5036129;28;20223;-63
2020/12/18 12:08:40;;;;;;;2.30;2.20;;;17.00;59.00;;;;;;5035519;28;20469;-63
2020/12/18 12:11:06;;;;;;;2.40;2.20;;;16.00;61.60;;;;;;5035982;28;20467;-63
2020/12/18 12:13:32;;;;;;;2.63;2.43;;;15.30;64.40;;;;;;5035802;28;20492;-64
2020/12/18 12:15:58;;;;;;;2.60;2.40;;;14.70;66.70;;;;;;5035410;28;20906;-63
2020/12/18 12:18:25;;;;;;;2.50;2.30;;;14.20;69.00;;;;;;5035686;28;20431;-64
2020/12/18 12:20:52;;;;;;;3.10;2.30;;;13.80;70.50;;;;;;5035811;28;20467;-64
2020/12/18 12:23:18;;;;;;;2.67;2.57;;;13.60;72.00;;;;;;5035497;28;20807;-63
2020/12/18 12:25:44;;;;;;;2.30;2.10;;;13.30;73.20;;;;;;5035828;28;20478;-63
2020/12/18 12:28:10;;;;;;;2.93;2.30;;;13.30;74.80;;;;;;5036010;28;20427;-63
2020/12/18 12:30:36;;;;;;;2.67;2.47;;;13.10;75.40;;;;;;5035295;28;20419;-63
2020/12/18 12:33:02;;;;;;;2.70;2.50;;;13.10;77.40;;;;;;5035554;28;20785;-62
2020/12/18 12:35:28;;;;;;;3.70;2.40;;;13.10;76.30;;;;;;5035519;28;20446;-63
2020/12/18 12:37:55;;;;;;;2.00;1.90;;;12.90;77.20;;;;;;5035436;28;20431;-63
2020/12/18 12:40:22;;;;;;;1.73;1.63;;;13.00;77.90;;;;;;5035078;28;20778;-64
2020/12/18 12:42:48;;;;;;;2.50;2.30;;;12.80;79.30;;;;;;5035165;28;20436;-63
2020/12/18 12:45:15;;;;;;;1.93;1.63;;;12.80;78.00;;;;;;5035405;28;20485;-63
2020/12/18 12:47:41;;;;;;;2.03;1.93;;;12.70;78.40;;;;;;5035401;28;20437;-63
2020/12/18 12:50:07;;;;;;;2.83;2.07;;;12.70;77.80;;;;;;5035423;28;20838;-63
2020/12/18 12:52:34;;;;;;;4.17;2.33;;;12.60;77.80;;;;;;5034971;28;20482;-63